CPA211 VHHH-UBBB
Flight info
| Callsign | CPA211 |
|---|---|
| Flight time | N/A |
| Altitude | 34100 |
| Route | BEKOL A461 SHL W22 TEPID W24 OSNOV G586 QP B330 ELKAL W179 RIRKI W232 WFX W179 OMBON/K0906S1100 Y1 SADAN W186 KAMUD/K0896F360 L141 TADOT/K0891F380 L141 TISIB L163 SR N193 OGOLI T898 DARVA/N0486F380 B476 NEBIT B738 KRS A480 DUKAN L850 ABROL |
| Aircraft | B77W/H-SDE1E2E3FGHIJ2J3J4J5M1RWXY/LB1D1 |
Departure
| Time | 2026-05-06 07:59 |
|---|---|
| Airport | Hong Kong International Airport (VHHH) |
Arrival
| Time | N/A |
|---|---|
| Airport | Heydar Aliyev International Airport (UBBB) |
| Time | Latitude | Longitude | Altitude | Speed | Heading |
|---|---|---|---|---|---|
| 2026-05-06 07:16 | 22.31154 | 113.91817 | 35 ft | 0 kts | 249° |
| 2026-05-06 07:44 | 22.31156 | 113.91821 | 35 ft | 2 kts | 249° |
| 2026-05-06 07:45 | 22.31160 | 113.91838 | 35 ft | 2 kts | 278° |
| 2026-05-06 07:45 | 22.31154 | 113.91855 | 32 ft | 2 kts | 313° |
| 2026-05-06 07:45 | 22.31141 | 113.91866 | 32 ft | 2 kts | 346° |
| 2026-05-06 07:45 | 22.31126 | 113.91868 | 31 ft | 0 kts | 340° |
| 2026-05-06 07:50 | 22.31128 | 113.91868 | 32 ft | 2 kts | 341° |
| 2026-05-06 07:51 | 22.31186 | 113.91872 | 35 ft | 10 kts | 10° |
| 2026-05-06 07:51 | 22.31256 | 113.91867 | 35 ft | 10 kts | 344° |
| 2026-05-06 07:51 | 22.31333 | 113.91840 | 35 ft | 17 kts | 341° |
| 2026-05-06 07:51 | 22.31485 | 113.91781 | 35 ft | 20 kts | 339° |
| 2026-05-06 07:52 | 22.31511 | 113.91663 | 35 ft | 19 kts | 250° |
| 2026-05-06 07:52 | 22.31466 | 113.91532 | 36 ft | 19 kts | 250° |
| 2026-05-06 07:52 | 22.31425 | 113.91401 | 36 ft | 19 kts | 251° |
| 2026-05-06 07:52 | 22.31382 | 113.91270 | 36 ft | 19 kts | 251° |
| 2026-05-06 07:53 | 22.31340 | 113.91138 | 36 ft | 19 kts | 251° |
| 2026-05-06 07:53 | 22.31297 | 113.91007 | 35 ft | 19 kts | 251° |
| 2026-05-06 07:53 | 22.31254 | 113.90876 | 35 ft | 19 kts | 251° |
| 2026-05-06 07:53 | 22.31213 | 113.90744 | 35 ft | 19 kts | 251° |
| 2026-05-06 07:54 | 22.31171 | 113.90613 | 35 ft | 19 kts | 251° |
| 2026-05-06 07:54 | 22.31129 | 113.90481 | 35 ft | 19 kts | 251° |
| 2026-05-06 07:54 | 22.31088 | 113.90351 | 35 ft | 19 kts | 251° |
| 2026-05-06 07:54 | 22.31046 | 113.90220 | 35 ft | 18 kts | 251° |
| 2026-05-06 07:55 | 22.30989 | 113.90044 | 35 ft | 18 kts | 251° |
| 2026-05-06 07:55 | 22.30961 | 113.89958 | 35 ft | 19 kts | 251° |
| 2026-05-06 07:55 | 22.30919 | 113.89826 | 35 ft | 18 kts | 251° |
| 2026-05-06 07:55 | 22.30922 | 113.89710 | 35 ft | 12 kts | 312° |
| 2026-05-06 07:56 | 22.30939 | 113.89698 | 35 ft | 0 kts | 330° |
| 2026-05-06 07:56 | 22.30943 | 113.89695 | 35 ft | 3 kts | 330° |
| 2026-05-06 07:56 | 22.30998 | 113.89669 | 35 ft | 14 kts | 346° |
| 2026-05-06 07:56 | 22.31069 | 113.89724 | 34 ft | 14 kts | 71° |
| 2026-05-06 07:57 | 22.31077 | 113.89750 | 34 ft | 0 kts | 72° |
| 2026-05-06 07:58 | 22.31084 | 113.89775 | 34 ft | 13 kts | 72° |
| 2026-05-06 07:58 | 22.31140 | 113.89963 | 35 ft | 44 kts | 71° |
| 2026-05-06 07:58 | 22.31321 | 113.90506 | 32 ft | 108 kts | 71° |
| 2026-05-06 07:58 | 22.31635 | 113.91468 | 37 ft | 161 kts | 71° |
| 2026-05-06 07:59 | 22.32048 | 113.92757 | 100 ft | 195 kts | 72° |
| 2026-05-06 07:59 | 22.32492 | 113.94123 | 640 ft | 192 kts | 72° |
| 2026-05-06 07:59 | 22.32948 | 113.95534 | 977 ft | 207 kts | 73° |
| 2026-05-06 07:59 | 22.33409 | 113.97054 | 1384 ft | 214 kts | 79° |
| 2026-05-06 08:00 | 22.33696 | 113.98633 | 1961 ft | 216 kts | 81° |
| 2026-05-06 08:00 | 22.33947 | 114.00257 | 2434 ft | 221 kts | 81° |
| 2026-05-06 08:00 | 22.34208 | 114.01922 | 2873 ft | 226 kts | 82° |
| 2026-05-06 08:00 | 22.34410 | 114.03633 | 3220 ft | 236 kts | 92° |
| 2026-05-06 08:01 | 22.34108 | 114.05428 | 3372 ft | 252 kts | 114° |
| 2026-05-06 08:01 | 22.33187 | 114.07071 | 3678 ft | 261 kts | 134° |
| 2026-05-06 08:01 | 22.31737 | 114.08276 | 4073 ft | 267 kts | 158° |
| 2026-05-06 08:01 | 22.29938 | 114.08762 | 4562 ft | 268 kts | 180° |
| 2026-05-06 08:02 | 22.28079 | 114.08744 | 5152 ft | 268 kts | 183° |
| 2026-05-06 08:02 | 22.26206 | 114.08725 | 5751 ft | 270 kts | 182° |
| 2026-05-06 08:02 | 22.24321 | 114.08708 | 6334 ft | 272 kts | 183° |
| 2026-05-06 08:02 | 22.22422 | 114.08680 | 6845 ft | 275 kts | 183° |
| 2026-05-06 08:03 | 22.20496 | 114.08656 | 7364 ft | 278 kts | 183° |
| 2026-05-06 08:03 | 22.18574 | 114.08854 | 7789 ft | 283 kts | 162° |
| 2026-05-06 08:03 | 22.16891 | 114.09997 | 8045 ft | 294 kts | 135° |
| 2026-05-06 08:03 | 22.15909 | 114.11928 | 8030 ft | 298 kts | 103° |
| 2026-05-06 08:04 | 22.15704 | 114.14121 | 8022 ft | 299 kts | 94° |
| 2026-05-06 08:04 | 22.15584 | 114.16372 | 8270 ft | 301 kts | 95° |
| 2026-05-06 08:04 | 22.15454 | 114.18632 | 8846 ft | 303 kts | 95° |
| 2026-05-06 08:04 | 22.15318 | 114.20915 | 9405 ft | 306 kts | 95° |
| 2026-05-06 08:05 | 22.15177 | 114.23216 | 9911 ft | 309 kts | 95° |
| 2026-05-06 08:05 | 22.15085 | 114.25552 | 10237 ft | 316 kts | 86° |
| 2026-05-06 08:05 | 22.15465 | 114.27956 | 10341 ft | 333 kts | 76° |
| 2026-05-06 08:05 | 22.16085 | 114.30436 | 10507 ft | 352 kts | 75° |
| 2026-05-06 08:06 | 22.16725 | 114.33062 | 10650 ft | 371 kts | 76° |
| 2026-05-06 08:06 | 22.17349 | 114.35831 | 10796 ft | 387 kts | 76° |
| 2026-05-06 08:06 | 22.18355 | 114.38550 | 10908 ft | 397 kts | 54° |
| 2026-05-06 08:06 | 22.20279 | 114.40680 | 11389 ft | 399 kts | 32° |
| 2026-05-06 08:07 | 22.22771 | 114.41932 | 12040 ft | 395 kts | 12° |
| 2026-05-06 08:07 | 22.25476 | 114.42295 | 12744 ft | 391 kts | 354° |
| 2026-05-06 08:07 | 22.28150 | 114.41868 | 13269 ft | 390 kts | 346° |
| 2026-05-06 08:07 | 22.30836 | 114.41308 | 13788 ft | 396 kts | 346° |
| 2026-05-06 08:08 | 22.33555 | 114.40743 | 14351 ft | 399 kts | 347° |
| 2026-05-06 08:08 | 22.36293 | 114.40191 | 14908 ft | 402 kts | 347° |
| 2026-05-06 08:08 | 22.39065 | 114.39652 | 15428 ft | 406 kts | 347° |
| 2026-05-06 08:08 | 22.41828 | 114.39125 | 15926 ft | 411 kts | 348° |
| 2026-05-06 08:09 | 22.44654 | 114.38581 | 16437 ft | 411 kts | 345° |
| 2026-05-06 08:09 | 22.47328 | 114.37517 | 16695 ft | 413 kts | 325° |
| 2026-05-06 08:09 | 22.49471 | 114.35473 | 17116 ft | 413 kts | 306° |
| 2026-05-06 08:09 | 22.50984 | 114.32838 | 17665 ft | 412 kts | 292° |
| 2026-05-06 08:10 | 22.51806 | 114.29883 | 18142 ft | 412 kts | 278° |
| 2026-05-06 08:10 | 22.52230 | 114.26804 | 18534 ft | 416 kts | 277° |
| 2026-05-06 08:10 | 22.52659 | 114.23698 | 18962 ft | 419 kts | 278° |
| 2026-05-06 08:10 | 22.53127 | 114.20620 | 19431 ft | 421 kts | 278° |
| 2026-05-06 08:11 | 22.53675 | 114.17496 | 19875 ft | 420 kts | 284° |
| 2026-05-06 08:11 | 22.54916 | 114.14609 | 20155 ft | 431 kts | 304° |
| 2026-05-06 08:11 | 22.56962 | 114.12219 | 20571 ft | 437 kts | 319° |
| 2026-05-06 08:11 | 22.59525 | 114.10427 | 21040 ft | 440 kts | 331° |
| 2026-05-06 08:12 | 22.62304 | 114.09009 | 21433 ft | 444 kts | 333° |
| 2026-05-06 08:12 | 22.65098 | 114.07641 | 21814 ft | 447 kts | 333° |
| 2026-05-06 08:12 | 22.67944 | 114.06248 | 22232 ft | 450 kts | 333° |
| 2026-05-06 08:12 | 22.70808 | 114.04825 | 22645 ft | 453 kts | 332° |
| 2026-05-06 08:13 | 22.73678 | 114.03407 | 23036 ft | 455 kts | 334° |
| 2026-05-06 08:13 | 22.76573 | 114.01978 | 23397 ft | 458 kts | 332° |
| 2026-05-06 08:13 | 22.79447 | 114.00476 | 23752 ft | 460 kts | 331° |
| 2026-05-06 08:13 | 22.82332 | 113.98954 | 24106 ft | 462 kts | 331° |
| 2026-05-06 08:14 | 22.85240 | 113.97439 | 24481 ft | 464 kts | 332° |
| 2026-05-06 08:14 | 22.88157 | 113.95937 | 24859 ft | 465 kts | 332° |
| 2026-05-06 08:14 | 22.91089 | 113.94430 | 25203 ft | 467 kts | 332° |
| 2026-05-06 08:14 | 22.93992 | 113.92926 | 25528 ft | 469 kts | 332° |
| 2026-05-06 08:15 | 22.96943 | 113.91388 | 25845 ft | 471 kts | 332° |
| 2026-05-06 08:15 | 22.99904 | 113.89844 | 26166 ft | 473 kts | 332° |
| 2026-05-06 08:15 | 23.02874 | 113.88296 | 26492 ft | 475 kts | 332° |
| 2026-05-06 08:15 | 23.05850 | 113.86714 | 26833 ft | 476 kts | 329° |
| 2026-05-06 08:16 | 23.08680 | 113.84855 | 27135 ft | 475 kts | 323° |
| 2026-05-06 08:16 | 23.11341 | 113.82728 | 27430 ft | 476 kts | 318° |
| 2026-05-06 08:16 | 23.13803 | 113.80330 | 27736 ft | 476 kts | 314° |
| 2026-05-06 08:16 | 23.16178 | 113.77817 | 27990 ft | 478 kts | 313° |
| 2026-05-06 08:17 | 23.18561 | 113.75281 | 28254 ft | 480 kts | 313° |
| 2026-05-06 08:17 | 23.20951 | 113.72744 | 28520 ft | 481 kts | 313° |
| 2026-05-06 08:17 | 23.23352 | 113.70206 | 28834 ft | 482 kts | 314° |
| 2026-05-06 08:17 | 23.25761 | 113.67671 | 29264 ft | 479 kts | 314° |
| 2026-05-06 08:18 | 23.28145 | 113.65170 | 29859 ft | 474 kts | 314° |
| 2026-05-06 08:18 | 23.30509 | 113.62692 | 30346 ft | 470 kts | 314° |
| 2026-05-06 08:18 | 23.32860 | 113.60226 | 30728 ft | 469 kts | 314° |
| 2026-05-06 08:18 | 23.35200 | 113.57769 | 31067 ft | 468 kts | 314° |
| 2026-05-06 08:19 | 23.37540 | 113.55311 | 31414 ft | 467 kts | 314° |
| 2026-05-06 08:19 | 23.39843 | 113.52889 | 31775 ft | 465 kts | 314° |
| 2026-05-06 08:19 | 23.42166 | 113.50445 | 32141 ft | 463 kts | 314° |
| 2026-05-06 08:19 | 23.44475 | 113.48014 | 32497 ft | 461 kts | 314° |
| 2026-05-06 08:20 | 23.46780 | 113.45587 | 32834 ft | 460 kts | 314° |
| 2026-05-06 08:20 | 23.49080 | 113.43164 | 33169 ft | 459 kts | 314° |
| 2026-05-06 08:20 | 23.51366 | 113.40753 | 33532 ft | 456 kts | 314° |
| 2026-05-06 08:20 | 23.53644 | 113.38352 | 33817 ft | 456 kts | 314° |
| 2026-05-06 08:21 | 23.58219 | 113.33444 | 33928 ft | 464 kts | 313° |
| 2026-05-06 08:21 | 23.62828 | 113.28474 | 34025 ft | 465 kts | 313° |
| 2026-05-06 08:22 | 23.66838 | 113.23016 | 34049 ft | 460 kts | 302° |
| 2026-05-06 08:22 | 23.69889 | 113.16916 | 34047 ft | 457 kts | 293° |
| 2026-05-06 08:23 | 23.72438 | 113.10569 | 34047 ft | 456 kts | 293° |
| 2026-05-06 08:23 | 23.75029 | 113.04242 | 34033 ft | 456 kts | 294° |
| 2026-05-06 08:24 | 23.76510 | 113.01250 | 34016 ft | 454 kts | 307° |
| 2026-05-06 08:24 | 23.78693 | 112.98763 | 34044 ft | 457 kts | 320° |
| 2026-05-06 08:24 | 23.84333 | 112.95542 | 34043 ft | 467 kts | 342° |
| 2026-05-06 08:25 | 23.90640 | 112.93689 | 34033 ft | 470 kts | 340° |
| 2026-05-06 08:25 | 23.96914 | 112.91624 | 34031 ft | 472 kts | 340° |
| 2026-05-06 08:26 | 24.03199 | 112.89523 | 34031 ft | 473 kts | 340° |
| 2026-05-06 08:26 | 24.09492 | 112.87430 | 34030 ft | 473 kts | 340° |
| 2026-05-06 08:27 | 24.15832 | 112.85324 | 34057 ft | 478 kts | 340° |
| 2026-05-06 08:27 | 24.22227 | 112.83202 | 34031 ft | 481 kts | 340° |
| 2026-05-06 08:28 | 24.28661 | 112.81068 | 34032 ft | 485 kts | 340° |
| 2026-05-06 08:28 | 24.35127 | 112.78919 | 34020 ft | 487 kts | 340° |
| 2026-05-06 08:29 | 24.41565 | 112.76739 | 34011 ft | 482 kts | 335° |
| 2026-05-06 08:29 | 24.44471 | 112.75001 | 34022 ft | 473 kts | 319° |
| 2026-05-06 08:29 | 24.46766 | 112.72465 | 34038 ft | 468 kts | 305° |
| 2026-05-06 08:30 | 24.49788 | 112.66194 | 34019 ft | 466 kts | 287° |
| 2026-05-06 08:30 | 24.50631 | 112.59183 | 34017 ft | 464 kts | 276° |
| 2026-05-06 08:31 | 24.51213 | 112.52118 | 34016 ft | 465 kts | 277° |
| 2026-05-06 08:31 | 24.51853 | 112.45030 | 34024 ft | 466 kts | 277° |
| 2026-05-06 08:32 | 24.52529 | 112.37937 | 34011 ft | 467 kts | 277° |
| 2026-05-06 08:32 | 24.53211 | 112.30845 | 34002 ft | 467 kts | 277° |
| 2026-05-06 08:33 | 24.53885 | 112.23801 | 34014 ft | 466 kts | 277° |
| 2026-05-06 08:33 | 24.54559 | 112.16704 | 34009 ft | 467 kts | 277° |
| 2026-05-06 08:34 | 24.55451 | 112.07256 | 34013 ft | 467 kts | 276° |
| 2026-05-06 08:35 | 24.56116 | 112.00148 | 34012 ft | 467 kts | 276° |
| 2026-05-06 08:35 | 24.56779 | 111.93037 | 33999 ft | 468 kts | 276° |
| 2026-05-06 08:36 | 24.57439 | 111.85925 | 33999 ft | 468 kts | 276° |
| 2026-05-06 08:36 | 24.58096 | 111.78813 | 33996 ft | 467 kts | 276° |
| 2026-05-06 08:37 | 24.58744 | 111.71750 | 33997 ft | 467 kts | 276° |
| 2026-05-06 08:37 | 24.59393 | 111.64650 | 33996 ft | 467 kts | 276° |
| 2026-05-06 08:38 | 24.60038 | 111.57542 | 33992 ft | 467 kts | 276° |
| 2026-05-06 08:38 | 24.60680 | 111.50439 | 33992 ft | 467 kts | 276° |
| 2026-05-06 08:39 | 24.61320 | 111.43326 | 33989 ft | 467 kts | 276° |
| 2026-05-06 08:39 | 24.61958 | 111.36203 | 33988 ft | 468 kts | 276° |
| 2026-05-06 08:40 | 24.62591 | 111.29086 | 33988 ft | 468 kts | 276° |
| 2026-05-06 08:40 | 24.63208 | 111.22016 | 33981 ft | 467 kts | 276° |
| 2026-05-06 08:41 | 24.63825 | 111.14902 | 33991 ft | 467 kts | 276° |
| 2026-05-06 08:41 | 24.64438 | 111.07791 | 33980 ft | 467 kts | 276° |
| 2026-05-06 08:42 | 24.65047 | 111.00694 | 33979 ft | 466 kts | 276° |
| 2026-05-06 08:42 | 24.65656 | 110.93592 | 33982 ft | 467 kts | 276° |
| 2026-05-06 08:43 | 24.66259 | 110.86486 | 33975 ft | 467 kts | 276° |
| 2026-05-06 08:43 | 24.67506 | 110.79527 | 33966 ft | 465 kts | 292° |
| 2026-05-06 08:44 | 24.70849 | 110.73485 | 33958 ft | 470 kts | 310° |
| 2026-05-06 08:44 | 24.75586 | 110.68499 | 33954 ft | 472 kts | 314° |
| 2026-05-06 08:45 | 24.80396 | 110.63564 | 33959 ft | 472 kts | 313° |
| 2026-05-06 08:45 | 24.85149 | 110.58580 | 33959 ft | 473 kts | 313° |
| 2026-05-06 08:46 | 24.89901 | 110.53562 | 33954 ft | 473 kts | 313° |
| 2026-05-06 08:46 | 24.94649 | 110.48535 | 33955 ft | 473 kts | 313° |
| 2026-05-06 08:47 | 24.99394 | 110.43509 | 33952 ft | 474 kts | 313° |
| 2026-05-06 08:47 | 25.04160 | 110.38470 | 33953 ft | 474 kts | 313° |
| 2026-05-06 08:48 | 25.08933 | 110.33436 | 33946 ft | 475 kts | 313° |
| 2026-05-06 08:48 | 25.13684 | 110.28417 | 33961 ft | 475 kts | 313° |
| 2026-05-06 08:49 | 25.18460 | 110.23363 | 33959 ft | 475 kts | 313° |
| 2026-05-06 08:49 | 25.23210 | 110.18350 | 33956 ft | 475 kts | 313° |
| 2026-05-06 08:50 | 25.28014 | 110.13331 | 33955 ft | 475 kts | 313° |
| 2026-05-06 08:50 | 25.32818 | 110.08311 | 33944 ft | 475 kts | 313° |
| 2026-05-06 08:51 | 25.37614 | 110.03283 | 33954 ft | 475 kts | 313° |
| 2026-05-06 08:51 | 25.42415 | 109.98242 | 33949 ft | 476 kts | 313° |
| 2026-05-06 08:52 | 25.47183 | 109.93227 | 33958 ft | 476 kts | 313° |
| 2026-05-06 08:52 | 25.51989 | 109.88166 | 33963 ft | 477 kts | 313° |
| 2026-05-06 08:53 | 25.56788 | 109.83112 | 33953 ft | 475 kts | 313° |
| 2026-05-06 08:53 | 25.61574 | 109.78063 | 33960 ft | 474 kts | 313° |
| 2026-05-06 08:54 | 25.66341 | 109.73025 | 33955 ft | 473 kts | 313° |
| 2026-05-06 08:54 | 25.71099 | 109.67994 | 33948 ft | 472 kts | 313° |
| 2026-05-06 08:55 | 25.75623 | 109.62779 | 33949 ft | 464 kts | 303° |
| 2026-05-06 08:55 | 25.78806 | 109.56595 | 33948 ft | 460 kts | 291° |
| 2026-05-06 08:56 | 25.80729 | 109.49893 | 33954 ft | 459 kts | 284° |
| 2026-05-06 08:56 | 25.82465 | 109.43047 | 33947 ft | 461 kts | 284° |
| 2026-05-06 08:57 | 25.84237 | 109.36202 | 33945 ft | 460 kts | 284° |
| 2026-05-06 08:57 | 25.86015 | 109.29420 | 33942 ft | 460 kts | 284° |
| 2026-05-06 08:58 | 25.87814 | 109.22559 | 33936 ft | 459 kts | 284° |
| 2026-05-06 08:58 | 25.89578 | 109.15808 | 33937 ft | 458 kts | 284° |
| 2026-05-06 08:59 | 25.91354 | 109.09010 | 33944 ft | 458 kts | 284° |
| 2026-05-06 08:59 | 25.93128 | 109.02207 | 33970 ft | 458 kts | 285° |
| 2026-05-06 09:00 | 25.94926 | 108.95405 | 33952 ft | 459 kts | 285° |
| 2026-05-06 09:00 | 25.96728 | 108.88583 | 33944 ft | 461 kts | 285° |
| 2026-05-06 09:01 | 25.98528 | 108.81747 | 33961 ft | 460 kts | 285° |
| 2026-05-06 09:01 | 26.00323 | 108.74907 | 33969 ft | 461 kts | 285° |
| 2026-05-06 09:02 | 26.02124 | 108.68112 | 33971 ft | 460 kts | 285° |
| 2026-05-06 09:02 | 26.03955 | 108.61279 | 33956 ft | 460 kts | 285° |
| 2026-05-06 09:03 | 26.05775 | 108.54456 | 33962 ft | 461 kts | 285° |
| 2026-05-06 09:03 | 26.07598 | 108.47617 | 33963 ft | 461 kts | 285° |
| 2026-05-06 09:04 | 26.09448 | 108.40791 | 33971 ft | 461 kts | 287° |
| 2026-05-06 09:04 | 26.12001 | 108.34255 | 33965 ft | 460 kts | 294° |
| 2026-05-06 09:05 | 26.14803 | 108.27874 | 33996 ft | 457 kts | 294° |
| 2026-05-06 09:05 | 26.17574 | 108.21500 | 33968 ft | 458 kts | 293° |
| 2026-05-06 09:06 | 26.20315 | 108.15146 | 33971 ft | 457 kts | 293° |
| 2026-05-06 09:06 | 26.23066 | 108.08749 | 33966 ft | 458 kts | 293° |
| 2026-05-06 09:07 | 26.25819 | 108.02344 | 33988 ft | 458 kts | 293° |
| 2026-05-06 09:07 | 26.28574 | 107.95929 | 33988 ft | 459 kts | 293° |
| 2026-05-06 09:08 | 26.31326 | 107.89508 | 33969 ft | 459 kts | 293° |
| 2026-05-06 09:08 | 26.34078 | 107.83078 | 33972 ft | 460 kts | 293° |
| 2026-05-06 09:09 | 26.36828 | 107.76639 | 33963 ft | 460 kts | 293° |
| 2026-05-06 09:09 | 26.39577 | 107.70196 | 33962 ft | 460 kts | 293° |
| 2026-05-06 09:10 | 26.42325 | 107.63743 | 33964 ft | 460 kts | 293° |
| 2026-05-06 09:10 | 26.45055 | 107.57325 | 33966 ft | 460 kts | 293° |
| 2026-05-06 09:11 | 26.47795 | 107.50875 | 33967 ft | 460 kts | 293° |
| 2026-05-06 09:11 | 26.50557 | 107.44434 | 33964 ft | 460 kts | 293° |
| 2026-05-06 09:12 | 26.53319 | 107.38001 | 33969 ft | 459 kts | 293° |
| 2026-05-06 09:12 | 26.56059 | 107.31563 | 33963 ft | 459 kts | 293° |
| 2026-05-06 09:13 | 26.58766 | 107.25113 | 33987 ft | 458 kts | 292° |
| 2026-05-06 09:13 | 26.61473 | 107.18659 | 33970 ft | 458 kts | 292° |
| 2026-05-06 09:14 | 26.64186 | 107.12202 | 33961 ft | 458 kts | 293° |
| 2026-05-06 09:14 | 26.66923 | 107.05773 | 33948 ft | 458 kts | 293° |
| 2026-05-06 09:15 | 26.69652 | 106.99370 | 33931 ft | 458 kts | 293° |
| 2026-05-06 09:15 | 26.72384 | 106.92933 | 33930 ft | 458 kts | 293° |
| 2026-05-06 09:16 | 26.75106 | 106.86504 | 33958 ft | 457 kts | 293° |
| 2026-05-06 09:16 | 26.78127 | 106.80244 | 33929 ft | 459 kts | 302° |
| 2026-05-06 09:17 | 26.82151 | 106.74661 | 33911 ft | 463 kts | 309° |
| 2026-05-06 09:17 | 26.86912 | 106.69824 | 33908 ft | 465 kts | 315° |
| 2026-05-06 09:18 | 26.91828 | 106.65095 | 33918 ft | 466 kts | 315° |
| 2026-05-06 09:18 | 26.96735 | 106.60322 | 33911 ft | 467 kts | 314° |
| 2026-05-06 09:19 | 27.01636 | 106.55509 | 33909 ft | 469 kts | 314° |
| 2026-05-06 09:19 | 27.06547 | 106.50673 | 33909 ft | 470 kts | 314° |
| 2026-05-06 09:20 | 27.10665 | 106.46615 | 33922 ft | 471 kts | 314° |
| 2026-05-06 09:20 | 27.15566 | 106.41781 | 33918 ft | 472 kts | 314° |
| 2026-05-06 09:21 | 27.20512 | 106.36899 | 33909 ft | 475 kts | 314° |
| 2026-05-06 09:21 | 27.25510 | 106.32032 | 33933 ft | 474 kts | 314° |
| 2026-05-06 09:22 | 27.30506 | 106.27188 | 33915 ft | 473 kts | 314° |
| 2026-05-06 09:22 | 27.35476 | 106.22357 | 33918 ft | 470 kts | 314° |
| 2026-05-06 09:23 | 27.40413 | 106.17542 | 33932 ft | 468 kts | 314° |
| 2026-05-06 09:23 | 27.45295 | 106.12773 | 33934 ft | 467 kts | 314° |
| 2026-05-06 09:24 | 27.50207 | 106.07969 | 33938 ft | 466 kts | 314° |
| 2026-05-06 09:24 | 27.55097 | 106.03179 | 33939 ft | 466 kts | 314° |
| 2026-05-06 09:25 | 27.59999 | 105.98373 | 33947 ft | 467 kts | 314° |
| 2026-05-06 09:25 | 27.64898 | 105.93565 | 33923 ft | 467 kts | 314° |
| 2026-05-06 09:26 | 27.69749 | 105.88699 | 33924 ft | 462 kts | 309° |
| 2026-05-06 09:26 | 27.73437 | 105.82877 | 33920 ft | 454 kts | 295° |
| 2026-05-06 09:27 | 27.75784 | 105.76372 | 33923 ft | 450 kts | 284° |
| 2026-05-06 09:27 | 27.77601 | 105.69589 | 33913 ft | 451 kts | 285° |
| 2026-05-06 09:28 | 27.79495 | 105.62836 | 33923 ft | 450 kts | 286° |
| 2026-05-06 09:28 | 27.81857 | 105.56273 | 33925 ft | 452 kts | 291° |
| 2026-05-06 09:29 | 27.84412 | 105.49766 | 33916 ft | 453 kts | 290° |
| 2026-05-06 09:29 | 27.87028 | 105.43292 | 33902 ft | 454 kts | 298° |
| 2026-05-06 09:30 | 27.91243 | 105.37946 | 33888 ft | 466 kts | 315° |
| 2026-05-06 09:30 | 27.93906 | 105.35814 | 33904 ft | 474 kts | 326° |
| 2026-05-06 09:30 | 27.96885 | 105.34150 | 33920 ft | 478 kts | 329° |
| 2026-05-06 09:31 | 28.02956 | 105.30961 | 33914 ft | 483 kts | 329° |
| 2026-05-06 09:31 | 28.09065 | 105.27696 | 33897 ft | 486 kts | 328° |
| 2026-05-06 09:32 | 28.15104 | 105.24399 | 33899 ft | 477 kts | 327° |
| 2026-05-06 09:32 | 28.21070 | 105.21120 | 33889 ft | 476 kts | 327° |
| 2026-05-06 09:33 | 28.27003 | 105.17852 | 33881 ft | 476 kts | 327° |
| 2026-05-06 09:33 | 28.32961 | 105.14570 | 33878 ft | 476 kts | 327° |
| 2026-05-06 09:34 | 28.38918 | 105.11285 | 33886 ft | 477 kts | 327° |
| 2026-05-06 09:34 | 28.44899 | 105.07984 | 33882 ft | 478 kts | 328° |
| 2026-05-06 09:35 | 28.50901 | 105.04673 | 33893 ft | 481 kts | 328° |
| 2026-05-06 09:35 | 28.56886 | 105.01376 | 33886 ft | 480 kts | 328° |
| 2026-05-06 09:36 | 28.62893 | 104.98061 | 33882 ft | 479 kts | 328° |
| 2026-05-06 09:36 | 28.68888 | 104.94743 | 33865 ft | 479 kts | 328° |
| 2026-05-06 09:37 | 28.74877 | 104.91422 | 33908 ft | 479 kts | 328° |
| 2026-05-06 09:37 | 28.80889 | 104.88086 | 33895 ft | 481 kts | 328° |
| 2026-05-06 09:38 | 28.86911 | 104.84741 | 33895 ft | 482 kts | 328° |
| 2026-05-06 09:38 | 28.92948 | 104.81382 | 33893 ft | 483 kts | 328° |
| 2026-05-06 09:39 | 28.98978 | 104.78006 | 33888 ft | 483 kts | 328° |
| 2026-05-06 09:39 | 29.04979 | 104.74640 | 33898 ft | 484 kts | 328° |
| 2026-05-06 09:40 | 29.11027 | 104.71244 | 33888 ft | 484 kts | 328° |
| 2026-05-06 09:40 | 29.20129 | 104.66127 | 33892 ft | 483 kts | 328° |
| 2026-05-06 09:41 | 29.26128 | 104.62758 | 33903 ft | 484 kts | 329° |
| 2026-05-06 09:41 | 29.32577 | 104.60272 | 33923 ft | 493 kts | 341° |
| 2026-05-06 09:42 | 29.39429 | 104.59160 | 33911 ft | 500 kts | 349° |
| 2026-05-06 09:42 | 29.46361 | 104.58651 | 33904 ft | 499 kts | 350° |
| 2026-05-06 09:43 | 29.53279 | 104.58149 | 33905 ft | 497 kts | 349° |
| 2026-05-06 09:43 | 29.60181 | 104.57599 | 33935 ft | 496 kts | 349° |
| 2026-05-06 09:44 | 29.67045 | 104.57029 | 33907 ft | 497 kts | 349° |
| 2026-05-06 09:44 | 29.73934 | 104.56455 | 33915 ft | 496 kts | 349° |
| 2026-05-06 09:45 | 29.80827 | 104.55883 | 33914 ft | 496 kts | 349° |
| 2026-05-06 09:45 | 29.87721 | 104.55310 | 33943 ft | 497 kts | 349° |
| 2026-05-06 09:46 | 29.94637 | 104.54734 | 33922 ft | 498 kts | 349° |
| 2026-05-06 09:46 | 30.01567 | 104.54156 | 33918 ft | 499 kts | 349° |
| 2026-05-06 09:47 | 30.08510 | 104.53578 | 33925 ft | 500 kts | 349° |
| 2026-05-06 09:47 | 30.15415 | 104.53002 | 33941 ft | 501 kts | 349° |
| 2026-05-06 09:48 | 30.20065 | 104.52613 | 33935 ft | 501 kts | 350° |
| 2026-05-06 09:48 | 30.28204 | 104.51932 | 33960 ft | 502 kts | 350° |
| 2026-05-06 09:49 | 30.36297 | 104.51254 | 33956 ft | 501 kts | 350° |
| 2026-05-06 09:49 | 30.43256 | 104.50669 | 33952 ft | 501 kts | 350° |
| 2026-05-06 09:50 | 30.50209 | 104.50084 | 33947 ft | 500 kts | 350° |
| 2026-05-06 09:50 | 30.57157 | 104.49493 | 33944 ft | 499 kts | 348° |
| 2026-05-06 09:51 | 30.63917 | 104.48070 | 33933 ft | 489 kts | 337° |
| 2026-05-06 09:51 | 30.70338 | 104.45553 | 33941 ft | 486 kts | 335° |
| 2026-05-06 09:52 | 30.76754 | 104.43023 | 33943 ft | 488 kts | 336° |
| 2026-05-06 09:52 | 30.83217 | 104.40550 | 33937 ft | 490 kts | 338° |
| 2026-05-06 09:53 | 30.89948 | 104.38964 | 33946 ft | 498 kts | 348° |
| 2026-05-06 09:53 | 30.96886 | 104.38635 | 33946 ft | 503 kts | 354° |
| 2026-05-06 09:54 | 31.03890 | 104.38535 | 33951 ft | 503 kts | 354° |
| 2026-05-06 09:54 | 31.10880 | 104.38380 | 33946 ft | 501 kts | 354° |
| 2026-05-06 09:55 | 31.17852 | 104.38191 | 33945 ft | 500 kts | 354° |
| 2026-05-06 09:55 | 31.24805 | 104.38005 | 33945 ft | 499 kts | 354° |
| 2026-05-06 09:56 | 31.31741 | 104.37677 | 33947 ft | 498 kts | 353° |
| 2026-05-06 09:56 | 31.38651 | 104.37236 | 33947 ft | 497 kts | 353° |
| 2026-05-06 09:57 | 31.45533 | 104.36813 | 33949 ft | 497 kts | 353° |
| 2026-05-06 09:57 | 31.52449 | 104.36410 | 33953 ft | 498 kts | 353° |
| 2026-05-06 09:58 | 31.59386 | 104.36010 | 33961 ft | 499 kts | 353° |
| 2026-05-06 09:58 | 31.66337 | 104.35609 | 33998 ft | 500 kts | 353° |
| 2026-05-06 09:59 | 31.73295 | 104.35204 | 34001 ft | 501 kts | 353° |
| 2026-05-06 09:59 | 31.80260 | 104.34809 | 34020 ft | 501 kts | 354° |
| 2026-05-06 10:00 | 31.87248 | 104.34455 | 34013 ft | 502 kts | 354° |
| 2026-05-06 10:00 | 31.94219 | 104.34107 | 34024 ft | 501 kts | 354° |
| 2026-05-06 10:01 | 32.01145 | 104.33755 | 34020 ft | 501 kts | 354° |
| 2026-05-06 10:01 | 32.08124 | 104.33396 | 34020 ft | 501 kts | 353° |
| 2026-05-06 10:02 | 32.15101 | 104.33038 | 34034 ft | 502 kts | 353° |
| 2026-05-06 10:02 | 32.22093 | 104.32674 | 34031 ft | 504 kts | 353° |
| 2026-05-06 10:03 | 32.29125 | 104.32313 | 34032 ft | 506 kts | 353° |
| 2026-05-06 10:03 | 32.36178 | 104.31950 | 34056 ft | 508 kts | 353° |
| 2026-05-06 10:04 | 32.43265 | 104.31584 | 34061 ft | 511 kts | 353° |
| 2026-05-06 10:04 | 32.50352 | 104.31227 | 34068 ft | 514 kts | 353° |
| 2026-05-06 10:05 | 32.56299 | 104.30929 | 34110 ft | 514 kts | 353° |
| 2026-05-06 10:05 | 32.64689 | 104.30519 | 34114 ft | 517 kts | 353° |
| 2026-05-06 10:06 | 32.71882 | 104.30179 | 34120 ft | 517 kts | 353° |
| 2026-05-06 10:06 | 32.77848 | 104.29892 | 34149 ft | 516 kts | 353° |
| 2026-05-06 10:07 | 32.85009 | 104.29548 | 34145 ft | 514 kts | 353° |
| 2026-05-06 10:07 | 32.92138 | 104.29205 | 34149 ft | 512 kts | 353° |
| 2026-05-06 10:08 | 32.99254 | 104.28862 | 34153 ft | 511 kts | 353° |
| 2026-05-06 10:08 | 33.06357 | 104.28521 | 34152 ft | 510 kts | 353° |
| 2026-05-06 10:09 | 33.13445 | 104.28177 | 34163 ft | 510 kts | 353° |
| 2026-05-06 10:09 | 33.20540 | 104.27835 | 34163 ft | 511 kts | 353° |
| 2026-05-06 10:10 | 33.27652 | 104.27491 | 34154 ft | 511 kts | 353° |
| 2026-05-06 10:10 | 33.31095 | 104.27007 | 34138 ft | 501 kts | 340° |
| 2026-05-06 10:10 | 33.34255 | 104.25423 | 34161 ft | 488 kts | 323° |
| 2026-05-06 10:11 | 33.36909 | 104.22957 | 34177 ft | 480 kts | 311° |
| 2026-05-06 10:11 | 33.39057 | 104.19944 | 34184 ft | 473 kts | 298° |
| 2026-05-06 10:11 | 33.42169 | 104.13067 | 34198 ft | 471 kts | 293° |
| 2026-05-06 10:12 | 33.45200 | 104.06041 | 34212 ft | 476 kts | 293° |
| 2026-05-06 10:12 | 33.48266 | 103.99054 | 34217 ft | 477 kts | 294° |
| 2026-05-06 10:13 | 33.51392 | 103.92020 | 34223 ft | 478 kts | 294° |
| 2026-05-06 10:13 | 33.54521 | 103.84996 | 34225 ft | 476 kts | 294° |
| 2026-05-06 10:14 | 33.57634 | 103.77999 | 34211 ft | 473 kts | 294° |
| 2026-05-06 10:14 | 33.60716 | 103.71049 | 34215 ft | 472 kts | 294° |
| 2026-05-06 10:15 | 33.63767 | 103.64147 | 34221 ft | 470 kts | 294° |
| 2026-05-06 10:15 | 33.66819 | 103.57222 | 34214 ft | 469 kts | 294° |
| 2026-05-06 10:16 | 33.69865 | 103.50303 | 34216 ft | 468 kts | 294° |
| 2026-05-06 10:16 | 33.72916 | 103.43362 | 34216 ft | 471 kts | 294° |
| 2026-05-06 10:17 | 33.75981 | 103.36379 | 34218 ft | 474 kts | 294° |
| 2026-05-06 10:17 | 33.79055 | 103.29357 | 34205 ft | 475 kts | 294° |
| 2026-05-06 10:18 | 33.82116 | 103.22349 | 34202 ft | 477 kts | 294° |
| 2026-05-06 10:18 | 33.85198 | 103.15286 | 34189 ft | 477 kts | 294° |
| 2026-05-06 10:19 | 33.88274 | 103.08218 | 34184 ft | 476 kts | 294° |
| 2026-05-06 10:19 | 33.91339 | 103.01161 | 34173 ft | 475 kts | 294° |
| 2026-05-06 10:20 | 33.94394 | 102.94114 | 34183 ft | 474 kts | 294° |
| 2026-05-06 10:20 | 33.97445 | 102.87057 | 34182 ft | 474 kts | 294° |
| 2026-05-06 10:21 | 34.00486 | 102.80011 | 34182 ft | 474 kts | 294° |
| 2026-05-06 10:21 | 34.03525 | 102.72957 | 34187 ft | 474 kts | 293° |
| 2026-05-06 10:22 | 34.06556 | 102.65906 | 34176 ft | 474 kts | 293° |
| 2026-05-06 10:22 | 34.09588 | 102.58840 | 34211 ft | 473 kts | 293° |
| 2026-05-06 10:23 | 34.12601 | 102.51800 | 34210 ft | 472 kts | 293° |
| 2026-05-06 10:23 | 34.15610 | 102.44757 | 34208 ft | 472 kts | 293° |
| 2026-05-06 10:24 | 34.18613 | 102.37714 | 34200 ft | 472 kts | 293° |
| 2026-05-06 10:24 | 34.21656 | 102.30721 | 34230 ft | 473 kts | 294° |
| 2026-05-06 10:25 | 34.24786 | 102.23699 | 34233 ft | 475 kts | 294° |
| 2026-05-06 10:25 | 34.27916 | 102.16659 | 34202 ft | 475 kts | 294° |
| 2026-05-06 10:26 | 34.31034 | 102.09607 | 34218 ft | 476 kts | 294° |
| 2026-05-06 10:26 | 34.34144 | 102.02545 | 34224 ft | 475 kts | 294° |
| 2026-05-06 10:27 | 34.37242 | 101.95494 | 34221 ft | 474 kts | 294° |
| 2026-05-06 10:27 | 34.40324 | 101.88461 | 34191 ft | 472 kts | 294° |
| 2026-05-06 10:28 | 34.43395 | 101.81443 | 34209 ft | 469 kts | 293° |
| 2026-05-06 10:28 | 34.46435 | 101.74480 | 34186 ft | 466 kts | 293° |
| 2026-05-06 10:29 | 34.49452 | 101.67558 | 34191 ft | 463 kts | 293° |
| 2026-05-06 10:29 | 34.52451 | 101.60658 | 34201 ft | 463 kts | 293° |
| 2026-05-06 10:30 | 34.55437 | 101.53773 | 34181 ft | 465 kts | 293° |
| 2026-05-06 10:30 | 34.58450 | 101.46815 | 34183 ft | 467 kts | 293° |
| 2026-05-06 10:31 | 34.61470 | 101.39825 | 34203 ft | 469 kts | 293° |
| 2026-05-06 10:31 | 34.64502 | 101.32794 | 34189 ft | 470 kts | 293° |
| 2026-05-06 10:32 | 34.67535 | 101.25753 | 34167 ft | 471 kts | 293° |
| 2026-05-06 10:32 | 34.70567 | 101.18697 | 34182 ft | 471 kts | 293° |
| 2026-05-06 10:33 | 34.73594 | 101.11633 | 34178 ft | 471 kts | 293° |
| 2026-05-06 10:33 | 34.76597 | 101.04620 | 34188 ft | 464 kts | 292° |
| 2026-05-06 10:34 | 34.79541 | 100.97722 | 34173 ft | 461 kts | 292° |
| 2026-05-06 10:34 | 34.82490 | 100.90795 | 34178 ft | 461 kts | 292° |
| 2026-05-06 10:35 | 34.85438 | 100.83858 | 34175 ft | 462 kts | 292° |
| 2026-05-06 10:35 | 34.88391 | 100.76904 | 34171 ft | 462 kts | 292° |
| 2026-05-06 10:36 | 34.91340 | 100.69931 | 34170 ft | 463 kts | 292° |
| 2026-05-06 10:36 | 34.94296 | 100.62938 | 34161 ft | 465 kts | 292° |
| 2026-05-06 10:37 | 34.97250 | 100.55925 | 34152 ft | 465 kts | 292° |
| 2026-05-06 10:37 | 35.00206 | 100.48904 | 34150 ft | 465 kts | 292° |
| 2026-05-06 10:38 | 35.03137 | 100.41934 | 34145 ft | 464 kts | 292° |
| 2026-05-06 10:38 | 35.06077 | 100.34912 | 34169 ft | 464 kts | 292° |
| 2026-05-06 10:39 | 35.08975 | 100.27989 | 34147 ft | 451 kts | 292° |
| 2026-05-06 10:39 | 35.11821 | 100.21171 | 34135 ft | 451 kts | 292° |
| 2026-05-06 10:40 | 35.14659 | 100.14347 | 34139 ft | 450 kts | 292° |
| 2026-05-06 10:40 | 35.17493 | 100.07523 | 34151 ft | 450 kts | 292° |
| 2026-05-06 10:41 | 35.20326 | 100.00692 | 34170 ft | 451 kts | 292° |
| 2026-05-06 10:41 | 35.23160 | 99.93838 | 34175 ft | 451 kts | 292° |
| 2026-05-06 10:42 | 35.25992 | 99.86985 | 34185 ft | 451 kts | 292° |
| 2026-05-06 10:42 | 35.28806 | 99.80159 | 34194 ft | 451 kts | 291° |
| 2026-05-06 10:43 | 35.31625 | 99.73306 | 34192 ft | 450 kts | 291° |
| 2026-05-06 10:44 | 35.35839 | 99.63036 | 34201 ft | 449 kts | 291° |
| 2026-05-06 10:44 | 35.38642 | 99.56191 | 34209 ft | 449 kts | 291° |
| 2026-05-06 10:45 | 35.41434 | 99.49355 | 34214 ft | 447 kts | 291° |
| 2026-05-06 10:45 | 35.44212 | 99.42529 | 34206 ft | 447 kts | 291° |
| 2026-05-06 10:46 | 35.46984 | 99.35712 | 34197 ft | 447 kts | 291° |
| 2026-05-06 10:46 | 35.49742 | 99.28915 | 34200 ft | 448 kts | 291° |
| 2026-05-06 10:47 | 35.52518 | 99.22066 | 34182 ft | 449 kts | 291° |
| 2026-05-06 10:47 | 35.55295 | 99.15194 | 34178 ft | 449 kts | 291° |
| 2026-05-06 10:48 | 35.58073 | 99.08303 | 34179 ft | 451 kts | 291° |
| 2026-05-06 10:48 | 35.60860 | 99.01375 | 34178 ft | 453 kts | 291° |
| 2026-05-06 10:49 | 35.63652 | 98.94422 | 34193 ft | 454 kts | 291° |
| 2026-05-06 10:49 | 35.66430 | 98.87491 | 34190 ft | 454 kts | 291° |
| 2026-05-06 10:50 | 35.69219 | 98.80518 | 34194 ft | 454 kts | 292° |
| 2026-05-06 10:50 | 35.71998 | 98.73557 | 34188 ft | 451 kts | 291° |
| 2026-05-06 10:51 | 35.74758 | 98.66627 | 34187 ft | 450 kts | 291° |
| 2026-05-06 10:51 | 35.77506 | 98.59714 | 34173 ft | 449 kts | 291° |
| 2026-05-06 10:52 | 35.79784 | 98.53965 | 34185 ft | 449 kts | 291° |
| 2026-05-06 10:52 | 35.82521 | 98.47044 | 34166 ft | 449 kts | 291° |
| 2026-05-06 10:53 | 35.85257 | 98.40115 | 34154 ft | 450 kts | 291° |
| 2026-05-06 10:53 | 35.88439 | 98.32040 | 34147 ft | 451 kts | 291° |
| 2026-05-06 10:54 | 35.90738 | 98.26196 | 34146 ft | 452 kts | 291° |
| 2026-05-06 10:54 | 35.93479 | 98.19205 | 34132 ft | 453 kts | 291° |
| 2026-05-06 10:55 | 35.96204 | 98.12247 | 34127 ft | 453 kts | 291° |
| 2026-05-06 10:55 | 35.98944 | 98.05238 | 34126 ft | 452 kts | 291° |
| 2026-05-06 10:56 | 36.01665 | 97.98252 | 34109 ft | 450 kts | 291° |
| 2026-05-06 10:56 | 36.04378 | 97.91282 | 34091 ft | 449 kts | 290° |
| 2026-05-06 10:57 | 36.07065 | 97.84359 | 34077 ft | 449 kts | 290° |
| 2026-05-06 10:57 | 36.09761 | 97.77395 | 34075 ft | 449 kts | 290° |
| 2026-05-06 10:58 | 36.12451 | 97.70434 | 34070 ft | 449 kts | 290° |
| 2026-05-06 10:58 | 36.15143 | 97.63452 | 34074 ft | 450 kts | 290° |
| 2026-05-06 10:59 | 36.17916 | 97.56489 | 34066 ft | 452 kts | 291° |
| 2026-05-06 10:59 | 36.20753 | 97.49521 | 34061 ft | 454 kts | 291° |
| 2026-05-06 11:00 | 36.23588 | 97.42528 | 34045 ft | 455 kts | 291° |
| 2026-05-06 11:00 | 36.26399 | 97.35548 | 34043 ft | 456 kts | 291° |
| 2026-05-06 11:01 | 36.29225 | 97.28503 | 34038 ft | 456 kts | 291° |
| 2026-05-06 11:01 | 36.32045 | 97.21458 | 34041 ft | 456 kts | 291° |
| 2026-05-06 11:02 | 36.34859 | 97.14415 | 34030 ft | 455 kts | 291° |
| 2026-05-06 11:02 | 36.37649 | 97.07416 | 34031 ft | 455 kts | 291° |
| 2026-05-06 11:03 | 36.40453 | 97.00365 | 34027 ft | 454 kts | 291° |
| 2026-05-06 11:03 | 36.43245 | 96.93328 | 34028 ft | 454 kts | 291° |
| 2026-05-06 11:04 | 36.46035 | 96.86282 | 34013 ft | 454 kts | 291° |
| 2026-05-06 11:04 | 36.48822 | 96.79225 | 34018 ft | 458 kts | 291° |
| 2026-05-06 11:05 | 36.51627 | 96.72106 | 34028 ft | 464 kts | 291° |
| 2026-05-06 11:05 | 36.54470 | 96.64882 | 34021 ft | 465 kts | 291° |
| 2026-05-06 11:06 | 36.57319 | 96.57634 | 34029 ft | 465 kts | 291° |
| 2026-05-06 11:06 | 36.60168 | 96.50492 | 34005 ft | 463 kts | 291° |
| 2026-05-06 11:07 | 36.63027 | 96.43343 | 34004 ft | 460 kts | 291° |
| 2026-05-06 11:07 | 36.65858 | 96.36228 | 34013 ft | 458 kts | 291° |
| 2026-05-06 11:08 | 36.68663 | 96.29155 | 34021 ft | 459 kts | 291° |
| 2026-05-06 11:08 | 36.71509 | 96.21951 | 33870 ft | 469 kts | 291° |
| 2026-05-06 11:08 | 36.72961 | 96.18270 | 33532 ft | 474 kts | 291° |
| 2026-05-06 11:09 | 36.74416 | 96.14588 | 33228 ft | 473 kts | 291° |
| 2026-05-06 11:09 | 36.75865 | 96.10922 | 32916 ft | 470 kts | 291° |
| 2026-05-06 11:09 | 36.77305 | 96.07267 | 32612 ft | 470 kts | 291° |
| 2026-05-06 11:09 | 36.78749 | 96.03604 | 32321 ft | 471 kts | 292° |
| 2026-05-06 11:10 | 36.80207 | 95.99944 | 32025 ft | 471 kts | 292° |
| 2026-05-06 11:10 | 36.81671 | 95.96282 | 31734 ft | 471 kts | 292° |
| 2026-05-06 11:10 | 36.83131 | 95.92630 | 31430 ft | 470 kts | 292° |
| 2026-05-06 11:10 | 36.84587 | 95.88982 | 31142 ft | 469 kts | 293° |
| 2026-05-06 11:11 | 36.86039 | 95.85337 | 30868 ft | 467 kts | 293° |
| 2026-05-06 11:11 | 36.87480 | 95.81713 | 30583 ft | 465 kts | 293° |
| 2026-05-06 11:11 | 36.88892 | 95.78153 | 30294 ft | 462 kts | 293° |
| 2026-05-06 11:11 | 36.90314 | 95.74564 | 30083 ft | 459 kts | 293° |
| 2026-05-06 11:12 | 36.91736 | 95.70968 | 30065 ft | 465 kts | 293° |
| 2026-05-06 11:12 | 36.94641 | 95.63607 | 30025 ft | 477 kts | 293° |
| 2026-05-06 11:13 | 36.97605 | 95.56089 | 29996 ft | 486 kts | 293° |
| 2026-05-06 11:13 | 37.00614 | 95.48450 | 29991 ft | 492 kts | 294° |
| 2026-05-06 11:14 | 37.03720 | 95.40781 | 29989 ft | 494 kts | 294° |
| 2026-05-06 11:14 | 37.06833 | 95.33173 | 29986 ft | 494 kts | 294° |
| 2026-05-06 11:15 | 37.09954 | 95.25508 | 29981 ft | 493 kts | 294° |
| 2026-05-06 11:15 | 37.13047 | 95.17864 | 30006 ft | 490 kts | 294° |
| 2026-05-06 11:16 | 37.16114 | 95.10259 | 29989 ft | 486 kts | 294° |
| 2026-05-06 11:16 | 37.19152 | 95.02708 | 29990 ft | 484 kts | 294° |
| 2026-05-06 11:17 | 37.22175 | 94.95176 | 29995 ft | 482 kts | 294° |
| 2026-05-06 11:17 | 37.25196 | 94.87628 | 30008 ft | 485 kts | 294° |
| 2026-05-06 11:18 | 37.28222 | 94.80049 | 30007 ft | 487 kts | 294° |
| 2026-05-06 11:18 | 37.31242 | 94.72471 | 30013 ft | 488 kts | 294° |
| 2026-05-06 11:19 | 37.34285 | 94.64818 | 30015 ft | 489 kts | 294° |
| 2026-05-06 11:19 | 37.37319 | 94.57169 | 30029 ft | 489 kts | 293° |
| 2026-05-06 11:20 | 37.40358 | 94.49489 | 30031 ft | 489 kts | 293° |
| 2026-05-06 11:20 | 37.43381 | 94.41830 | 30019 ft | 489 kts | 293° |
| 2026-05-06 11:21 | 37.46396 | 94.34172 | 30028 ft | 488 kts | 293° |
| 2026-05-06 11:21 | 37.49385 | 94.26560 | 30022 ft | 487 kts | 293° |
| 2026-05-06 11:22 | 37.52386 | 94.18900 | 30033 ft | 487 kts | 293° |
| 2026-05-06 11:22 | 37.55375 | 94.11252 | 30027 ft | 486 kts | 293° |
| 2026-05-06 11:23 | 37.58351 | 94.03621 | 30032 ft | 485 kts | 293° |
| 2026-05-06 11:23 | 37.61322 | 93.95981 | 30034 ft | 485 kts | 292° |
| 2026-05-06 11:24 | 37.64296 | 93.88311 | 30027 ft | 487 kts | 292° |
| 2026-05-06 11:24 | 37.67268 | 93.80632 | 30047 ft | 488 kts | 293° |
| 2026-05-06 11:25 | 37.70246 | 93.72917 | 30035 ft | 489 kts | 293° |
| 2026-05-06 11:25 | 37.73224 | 93.65183 | 30036 ft | 490 kts | 293° |
| 2026-05-06 11:26 | 37.76206 | 93.57420 | 30042 ft | 491 kts | 292° |
| 2026-05-06 11:26 | 37.79168 | 93.49689 | 30042 ft | 492 kts | 292° |
| 2026-05-06 11:27 | 37.82152 | 93.41881 | 30041 ft | 493 kts | 292° |
| 2026-05-06 11:27 | 37.85128 | 93.34078 | 30046 ft | 492 kts | 292° |
| 2026-05-06 11:28 | 37.88101 | 93.26259 | 30055 ft | 492 kts | 292° |
| 2026-05-06 11:28 | 37.91059 | 93.18458 | 30062 ft | 491 kts | 292° |
| 2026-05-06 11:29 | 37.93993 | 93.10705 | 30062 ft | 491 kts | 292° |
| 2026-05-06 11:29 | 37.96943 | 93.02886 | 30065 ft | 491 kts | 292° |
| 2026-05-06 11:30 | 37.99882 | 92.95077 | 30074 ft | 491 kts | 292° |
| 2026-05-06 11:30 | 38.02821 | 92.87248 | 30082 ft | 492 kts | 292° |
| 2026-05-06 11:31 | 38.05762 | 92.79395 | 30085 ft | 493 kts | 292° |
| 2026-05-06 11:31 | 38.08701 | 92.71525 | 30096 ft | 493 kts | 292° |
| 2026-05-06 11:32 | 38.11639 | 92.63636 | 30087 ft | 494 kts | 292° |
| 2026-05-06 11:32 | 38.14577 | 92.55730 | 30105 ft | 495 kts | 292° |
| 2026-05-06 11:33 | 38.17400 | 92.47822 | 30119 ft | 493 kts | 288° |
| 2026-05-06 11:33 | 38.19812 | 92.39674 | 30119 ft | 492 kts | 287° |
| 2026-05-06 11:34 | 38.21781 | 92.32899 | 30119 ft | 491 kts | 287° |
| 2026-05-06 11:35 | 38.26599 | 92.16426 | 30135 ft | 489 kts | 287° |
| 2026-05-06 11:35 | 38.28978 | 92.08302 | 30151 ft | 489 kts | 287° |
| 2026-05-06 11:36 | 38.31351 | 92.00173 | 30148 ft | 489 kts | 287° |
| 2026-05-06 11:36 | 38.33716 | 91.92040 | 30161 ft | 489 kts | 287° |
| 2026-05-06 11:37 | 38.36072 | 91.83918 | 30163 ft | 488 kts | 287° |
| 2026-05-06 11:37 | 38.38404 | 91.75853 | 30180 ft | 487 kts | 287° |
| 2026-05-06 11:38 | 38.40738 | 91.67755 | 30193 ft | 486 kts | 287° |
| 2026-05-06 11:38 | 38.43064 | 91.59659 | 30195 ft | 485 kts | 287° |
| 2026-05-06 11:39 | 38.45379 | 91.51578 | 30207 ft | 484 kts | 287° |
| 2026-05-06 11:39 | 38.47683 | 91.43513 | 30214 ft | 483 kts | 287° |
| 2026-05-06 11:40 | 38.49980 | 91.35445 | 30237 ft | 483 kts | 287° |
| 2026-05-06 11:40 | 38.52269 | 91.27378 | 30239 ft | 483 kts | 287° |
| 2026-05-06 11:41 | 38.54544 | 91.19342 | 30257 ft | 483 kts | 287° |
| 2026-05-06 11:41 | 38.56824 | 91.11260 | 30279 ft | 483 kts | 287° |
| 2026-05-06 11:42 | 38.59099 | 91.03173 | 30298 ft | 484 kts | 287° |
| 2026-05-06 11:42 | 38.61370 | 90.95073 | 30280 ft | 484 kts | 287° |
| 2026-05-06 11:43 | 38.63634 | 90.86976 | 30317 ft | 483 kts | 287° |
| 2026-05-06 11:43 | 38.65892 | 90.78871 | 30329 ft | 483 kts | 287° |
| 2026-05-06 11:44 | 38.69365 | 90.66755 | 30324 ft | 483 kts | 289° |
| 2026-05-06 11:44 | 38.71939 | 90.58847 | 30321 ft | 484 kts | 289° |
| 2026-05-06 11:45 | 38.74536 | 90.50902 | 30328 ft | 483 kts | 289° |
| 2026-05-06 11:45 | 38.77103 | 90.42934 | 30313 ft | 484 kts | 289° |
| 2026-05-06 11:46 | 38.79662 | 90.34947 | 30314 ft | 484 kts | 289° |
| 2026-05-06 11:46 | 38.82209 | 90.26962 | 30308 ft | 484 kts | 289° |
| 2026-05-06 11:47 | 38.84744 | 90.18967 | 30292 ft | 484 kts | 289° |
| 2026-05-06 11:47 | 38.87273 | 90.10973 | 30285 ft | 484 kts | 289° |
| 2026-05-06 11:48 | 38.89782 | 90.03011 | 30285 ft | 484 kts | 289° |
| 2026-05-06 11:48 | 38.92302 | 89.95000 | 30285 ft | 484 kts | 289° |
| 2026-05-06 11:49 | 38.94819 | 89.86977 | 30259 ft | 484 kts | 289° |
| 2026-05-06 11:49 | 38.97333 | 89.78940 | 30252 ft | 485 kts | 288° |
| 2026-05-06 11:50 | 38.99845 | 89.70892 | 30264 ft | 485 kts | 288° |
| 2026-05-06 11:50 | 39.02350 | 89.62831 | 30250 ft | 485 kts | 288° |
| 2026-05-06 11:51 | 39.03845 | 89.58008 | 30231 ft | 485 kts | 288° |
| 2026-05-06 11:51 | 39.06326 | 89.49990 | 30219 ft | 485 kts | 288° |
| 2026-05-06 11:52 | 39.08792 | 89.42000 | 30217 ft | 485 kts | 288° |
| 2026-05-06 11:52 | 39.11276 | 89.33927 | 30207 ft | 485 kts | 288° |
| 2026-05-06 11:53 | 39.13752 | 89.25862 | 30184 ft | 483 kts | 288° |
| 2026-05-06 11:53 | 39.16210 | 89.17827 | 30166 ft | 480 kts | 288° |
| 2026-05-06 11:54 | 39.18629 | 89.09893 | 30163 ft | 477 kts | 288° |
| 2026-05-06 11:54 | 39.21048 | 89.01938 | 30136 ft | 476 kts | 288° |
| 2026-05-06 11:55 | 39.23456 | 88.93994 | 30139 ft | 476 kts | 288° |
| 2026-05-06 11:55 | 39.25861 | 88.86038 | 30133 ft | 476 kts | 288° |
| 2026-05-06 11:56 | 39.28265 | 88.78060 | 30134 ft | 477 kts | 288° |
| 2026-05-06 11:56 | 39.30669 | 88.70062 | 30110 ft | 477 kts | 288° |
| 2026-05-06 11:57 | 39.33050 | 88.62115 | 30109 ft | 477 kts | 288° |
| 2026-05-06 11:57 | 39.35443 | 88.54108 | 30121 ft | 477 kts | 287° |
| 2026-05-06 11:58 | 39.37823 | 88.46120 | 30107 ft | 476 kts | 288° |
| 2026-05-06 11:58 | 39.40192 | 88.38141 | 30103 ft | 475 kts | 287° |
| 2026-05-06 11:59 | 39.42551 | 88.30177 | 30102 ft | 474 kts | 287° |
| 2026-05-06 11:59 | 39.44906 | 88.22198 | 30103 ft | 474 kts | 287° |
| 2026-05-06 12:00 | 39.47249 | 88.14234 | 30105 ft | 474 kts | 287° |
| 2026-05-06 12:00 | 39.49591 | 88.06252 | 30104 ft | 474 kts | 288° |
| 2026-05-06 12:01 | 39.51931 | 87.98258 | 30109 ft | 475 kts | 288° |
| 2026-05-06 12:01 | 39.54250 | 87.90307 | 30107 ft | 475 kts | 288° |
| 2026-05-06 12:02 | 39.56582 | 87.82287 | 30126 ft | 476 kts | 288° |
| 2026-05-06 12:02 | 39.58916 | 87.74236 | 30119 ft | 477 kts | 288° |
| 2026-05-06 12:03 | 39.61257 | 87.66137 | 30111 ft | 479 kts | 289° |
| 2026-05-06 12:03 | 39.63585 | 87.58063 | 30116 ft | 481 kts | 289° |
| 2026-05-06 12:04 | 39.65932 | 87.49895 | 30120 ft | 483 kts | 288° |
| 2026-05-06 12:04 | 39.68273 | 87.41722 | 30122 ft | 483 kts | 288° |
| 2026-05-06 12:05 | 39.70607 | 87.33545 | 30113 ft | 481 kts | 288° |
| 2026-05-06 12:05 | 39.72922 | 87.25408 | 30110 ft | 479 kts | 289° |
| 2026-05-06 12:06 | 39.75226 | 87.17288 | 30115 ft | 478 kts | 289° |
| 2026-05-06 12:06 | 39.77520 | 87.09173 | 30135 ft | 479 kts | 289° |
| 2026-05-06 12:07 | 39.79833 | 87.00969 | 30131 ft | 487 kts | 289° |
| 2026-05-06 12:07 | 39.82156 | 86.92704 | 30115 ft | 491 kts | 290° |
| 2026-05-06 12:08 | 39.84502 | 86.84328 | 30123 ft | 494 kts | 290° |
| 2026-05-06 12:08 | 39.86853 | 86.75913 | 30126 ft | 495 kts | 290° |
| 2026-05-06 12:09 | 39.89201 | 86.67475 | 30121 ft | 495 kts | 290° |
| 2026-05-06 12:09 | 39.91536 | 86.59055 | 30122 ft | 493 kts | 290° |
| 2026-05-06 12:10 | 39.93856 | 86.50660 | 30121 ft | 492 kts | 290° |
| 2026-05-06 12:10 | 39.96165 | 86.42282 | 30129 ft | 491 kts | 290° |
| 2026-05-06 12:11 | 39.98466 | 86.33897 | 30132 ft | 492 kts | 291° |
| 2026-05-06 12:11 | 40.00766 | 86.25504 | 30129 ft | 495 kts | 291° |
| 2026-05-06 12:12 | 40.03084 | 86.17010 | 30123 ft | 498 kts | 291° |
| 2026-05-06 12:12 | 40.05402 | 86.08483 | 30135 ft | 499 kts | 291° |
| 2026-05-06 12:13 | 40.07713 | 85.99930 | 30133 ft | 500 kts | 290° |
| 2026-05-06 12:13 | 40.09713 | 85.91226 | 30132 ft | 500 kts | 288° |
| 2026-05-06 12:14 | 40.11603 | 85.82492 | 30136 ft | 499 kts | 287° |
| 2026-05-06 12:14 | 40.13496 | 85.73763 | 30133 ft | 499 kts | 288° |
| 2026-05-06 12:15 | 40.15398 | 85.65045 | 30137 ft | 498 kts | 288° |
| 2026-05-06 12:15 | 40.17302 | 85.56333 | 30137 ft | 499 kts | 288° |
| 2026-05-06 12:16 | 40.19205 | 85.47589 | 30139 ft | 501 kts | 288° |
| 2026-05-06 12:16 | 40.21097 | 85.38851 | 30127 ft | 503 kts | 288° |
| 2026-05-06 12:17 | 40.22999 | 85.30022 | 30136 ft | 504 kts | 287° |
| 2026-05-06 12:17 | 40.24895 | 85.21188 | 30135 ft | 504 kts | 287° |
| 2026-05-06 12:18 | 40.26466 | 85.13841 | 30137 ft | 504 kts | 287° |
| 2026-05-06 12:18 | 40.28669 | 85.03498 | 30122 ft | 504 kts | 287° |
| 2026-05-06 12:19 | 40.30228 | 84.96147 | 30134 ft | 502 kts | 287° |
| 2026-05-06 12:19 | 40.32091 | 84.87331 | 30136 ft | 502 kts | 287° |
| 2026-05-06 12:20 | 40.33945 | 84.78519 | 30137 ft | 501 kts | 287° |
| 2026-05-06 12:20 | 40.35792 | 84.69704 | 30137 ft | 501 kts | 287° |
| 2026-05-06 12:21 | 40.37622 | 84.60939 | 30142 ft | 502 kts | 287° |
| 2026-05-06 12:21 | 40.39458 | 84.52100 | 30141 ft | 502 kts | 287° |
| 2026-05-06 12:22 | 40.41286 | 84.43264 | 30120 ft | 489 kts | 287° |
| 2026-05-06 12:22 | 40.43023 | 84.34828 | 30129 ft | 479 kts | 287° |
| 2026-05-06 12:23 | 40.44758 | 84.26379 | 30130 ft | 479 kts | 286° |
| 2026-05-06 12:23 | 40.46487 | 84.17925 | 30135 ft | 479 kts | 286° |
| 2026-05-06 12:24 | 40.48212 | 84.09453 | 30127 ft | 479 kts | 286° |
| 2026-05-06 12:24 | 40.49930 | 84.00976 | 30132 ft | 479 kts | 286° |
| 2026-05-06 12:25 | 40.51642 | 83.92504 | 30136 ft | 479 kts | 286° |
| 2026-05-06 12:25 | 40.53388 | 83.84103 | 30131 ft | 479 kts | 287° |
| 2026-05-06 12:26 | 40.55168 | 83.75656 | 30135 ft | 480 kts | 287° |
| 2026-05-06 12:26 | 40.56941 | 83.67193 | 30131 ft | 480 kts | 286° |
| 2026-05-06 12:27 | 40.58703 | 83.58709 | 30137 ft | 481 kts | 286° |
| 2026-05-06 12:27 | 40.60457 | 83.50219 | 30123 ft | 481 kts | 286° |
| 2026-05-06 12:28 | 40.62206 | 83.41719 | 30132 ft | 480 kts | 286° |
| 2026-05-06 12:28 | 40.63944 | 83.33236 | 30130 ft | 480 kts | 286° |
| 2026-05-06 12:29 | 40.65679 | 83.24735 | 30125 ft | 480 kts | 286° |
| 2026-05-06 12:29 | 40.67405 | 83.16247 | 30129 ft | 480 kts | 286° |
| 2026-05-06 12:30 | 40.69122 | 83.07765 | 30128 ft | 479 kts | 285° |
| 2026-05-06 12:30 | 40.70823 | 82.99329 | 30133 ft | 479 kts | 285° |
| 2026-05-06 12:31 | 40.72471 | 82.91117 | 30131 ft | 479 kts | 285° |
| 2026-05-06 12:31 | 40.74171 | 82.82619 | 30127 ft | 479 kts | 285° |
| 2026-05-06 12:32 | 40.76252 | 82.72162 | 30124 ft | 479 kts | 285° |